Time;durP1;ratioP1;P1;durP2;ratioP2;P2;SDS_P1;SDS_P2;PMS_P1;PMS_P2;Temp;Humidity;BMP_temperature;BMP_pressure;BME280_temperature;BME280_humidity;BME280_pressure;Samples;Min_cycle;Max_cycle;Signal;HPM_P1;HPM_P2
2021/08/11 00:01:10;;;;;;;14.40;11.70;;;;;;;16.89;82.99;100458.64;93738;1203;93763;-58
2021/08/11 00:03:17;;;;;;;14.20;11.40;;;;;;;16.93;82.92;100461.55;93788;1202;80784;-58
2021/08/11 00:05:28;;;;;;;14.60;11.50;;;;;;;16.94;82.93;100458.05;93760;1202;81166;-59
2021/08/11 00:07:36;;;;;;;13.90;11.30;;;;;;;16.94;83.01;100460.74;93745;1202;97797;-58
2021/08/11 00:09:43;;;;;;;14.10;11.90;;;;;;;16.91;83.09;100456.58;93782;1202;88216;-62
2021/08/11 00:11:51;;;;;;;14.70;12.50;;;;;;;16.94;83.04;100456.45;93763;1202;94223;-62
2021/08/11 00:13:59;;;;;;;15.40;12.60;;;;;;;16.99;83.02;100459.96;93763;1202;81040;-62
2021/08/11 00:16:08;;;;;;;15.80;12.90;;;;;;;17.00;82.98;100460.99;93800;1195;81795;-62
2021/08/11 00:18:16;;;;;;;15.30;12.50;;;;;;;17.03;83.07;100465.54;93735;1202;98881;-62
2021/08/11 00:20:24;;;;;;;14.80;12.70;;;;;;;17.02;83.10;100462.09;93772;1202;87116;-62
2021/08/11 00:22:32;;;;;;;20.50;13.00;;;;;;;17.03;83.09;100460.79;93755;1202;94376;-62
2021/08/11 00:24:39;;;;;;;15.30;12.30;;;;;;;17.02;83.08;100456.55;93749;1195;79680;-61
2021/08/11 00:26:50;;;;;;;16.50;12.30;;;;;;;17.04;83.09;100460.29;93757;1202;81850;-63
2021/08/11 00:28:58;;;;;;;14.60;12.50;;;;;;;17.03;83.05;100459.27;93748;1202;100039;-62
2021/08/11 00:31:05;;;;;;;15.30;12.00;;;;;;;17.02;83.15;100460.34;93766;1196;86677;-62
2021/08/11 00:33:13;;;;;;;15.60;12.70;;;;;;;17.05;83.05;100464.51;93734;1202;94342;-63
2021/08/11 00:35:21;;;;;;;15.80;13.00;;;;;;;17.05;83.05;100455.40;93747;1202;81435;-59
2021/08/11 00:37:29;;;;;;;16.80;13.30;;;;;;;17.04;83.10;100454.39;93763;1202;81886;-60
2021/08/11 00:39:40;;;;;;;16.40;13.40;;;;;;;17.10;83.04;100453.14;93770;1202;99346;-62
2021/08/11 00:41:48;;;;;;;18.20;14.00;;;;;;;17.12;83.12;100454.16;93749;1202;87035;-62
2021/08/11 00:43:57;;;;;;;17.40;13.20;;;;;;;17.17;83.07;100456.20;93731;1203;94309;-63
2021/08/11 00:46:07;;;;;;;18.50;12.90;;;;;;;17.20;83.02;100454.48;93743;1202;81035;-63
2021/08/11 00:48:16;;;;;;;17.30;13.60;;;;;;;17.17;83.07;100451.52;93789;1202;81774;-62
2021/08/11 00:50:23;;;;;;;17.30;13.50;;;;;;;17.18;83.12;100447.73;93785;1202;100029;-59
2021/08/11 00:52:31;;;;;;;17.90;14.10;;;;;;;17.18;83.05;100446.57;93749;1203;88489;-59
2021/08/11 00:54:43;;;;;;;17.90;13.60;;;;;;;17.16;83.07;100445.76;93769;1202;93338;-59
2021/08/11 00:56:55;;;;;;;16.40;13.10;;;;;;;17.14;83.13;100444.34;93755;1202;81182;-58
2021/08/11 00:59:05;;;;;;;17.30;13.60;;;;;;;17.18;83.16;100445.86;93758;1202;82066;-58
2021/08/11 01:01:13;;;;;;;17.10;14.30;;;;;;;17.21;83.10;100445.10;93766;1202;99994;-59
2021/08/11 01:03:26;;;;;;;19.00;14.50;;;;;;;17.23;83.14;100449.10;93775;1202;87916;-60
2021/08/11 01:05:34;;;;;;;18.20;15.20;;;;;;;17.20;83.18;100448.50;93809;1202;93870;-63
2021/08/11 01:07:44;;;;;;;18.70;14.20;;;;;;;17.21;83.19;100450.43;93747;1202;80710;-63
2021/08/11 01:09:52;;;;;;;17.90;13.70;;;;;;;17.23;83.21;100446.83;93782;1202;81166;-60
2021/08/11 01:12:01;;;;;;;18.90;14.40;;;;;;;17.22;83.31;100448.49;93792;1202;99755;-58
2021/08/11 01:14:10;;;;;;;20.00;14.80;;;;;;;17.22;83.38;100453.34;93773;1202;87077;-59
2021/08/11 01:16:18;;;;;;;19.70;14.70;;;;;;;17.19;83.33;100450.11;93751;1202;94470;-58
2021/08/11 01:18:29;;;;;;;18.90;14.20;;;;;;;17.23;83.35;100448.02;93777;1202;79919;-58
2021/08/11 01:20:43;;;;;;;18.00;14.20;;;;;;;17.28;83.19;100442.98;93749;1202;81091;-62
2021/08/11 01:22:58;;;;;;;21.10;16.30;;;;;;;17.28;83.29;100440.75;93772;1202;99318;-62
2021/08/11 01:25:14;;;;;;;20.50;15.50;;;;;;;17.31;83.30;100442.30;93764;1195;87137;-62
2021/08/11 01:28:02;;;;;;;19.10;15.20;;;;;;;17.26;83.31;100437.84;93706;1197;93275;-62
2021/08/11 01:30:21;;;;;;;19.20;15.20;;;;;;;17.26;83.42;100439.33;93766;1202;79323;-62
2021/08/11 01:32:46;;;;;;;20.10;15.50;;;;;;;17.26;83.35;100430.52;93758;1202;80783;-62
2021/08/11 01:34:55;;;;;;;21.00;16.40;;;;;;;17.28;83.37;100433.80;93714;1202;100453;-60
2021/08/11 01:37:08;;;;;;;21.90;16.00;;;;;;;17.29;83.37;100434.98;93826;1202;88196;-60
2021/08/11 01:39:33;;;;;;;19.60;15.00;;;;;;;17.26;83.37;100436.65;93777;1196;92709;-60
2021/08/11 01:41:49;;;;;;;18.50;15.00;;;;;;;17.27;83.34;100439.63;93757;1199;79467;-57
2021/08/11 01:43:59;;;;;;;19.70;15.60;;;;;;;17.30;83.25;100449.09;93811;1196;80220;-58
2021/08/11 01:46:10;;;;;;;15.90;13.30;;;;;;;17.29;83.29;100456.06;93808;1202;99141;-58
2021/08/11 01:48:24;;;;;;;18.20;15.80;;;;;;;17.32;83.26;100461.23;93749;1202;88548;-58
2021/08/11 01:50:38;;;;;;;18.30;14.30;;;;;;;17.32;83.35;100460.40;93758;1202;93844;-61
2021/08/11 01:52:47;;;;;;;16.40;14.40;;;;;;;17.26;83.35;100454.81;93758;1202;81287;-62
2021/08/11 01:54:55;;;;;;;18.90;14.30;;;;;;;17.25;83.23;100444.69;93781;1202;82047;-58
2021/08/11 01:57:04;;;;;;;15.20;13.60;;;;;;;17.22;83.22;100439.66;93753;1202;99212;-58
2021/08/11 01:59:14;;;;;;;17.80;14.60;;;;;;;17.18;83.15;100439.92;93775;1202;87745;-58
2021/08/11 02:01:22;;;;;;;16.90;13.90;;;;;;;17.16;83.04;100445.00;93780;1202;93694;-63
2021/08/11 02:03:30;;;;;;;16.90;14.10;;;;;;;17.13;83.13;100445.51;93802;1202;79483;-61
2021/08/11 02:05:39;;;;;;;16.00;13.80;;;;;;;17.13;83.15;100448.41;93856;1186;80234;-58
2021/08/11 02:07:47;;;;;;;17.30;14.20;;;;;;;17.13;83.10;100449.82;93717;1203;99405;-58
2021/08/11 02:09:55;;;;;;;16.20;13.10;;;;;;;17.07;83.30;100446.54;93735;1202;87976;-62
2021/08/11 02:12:05;;;;;;;15.80;14.00;;;;;;;17.05;83.30;100444.97;93768;1195;94504;-62
2021/08/11 02:14:13;;;;;;;15.50;13.90;;;;;;;17.04;83.34;100444.11;93779;1196;80143;-62
2021/08/11 02:16:21;;;;;;;15.30;12.90;;;;;;;17.02;83.39;100442.48;93768;1202;81345;-59
2021/08/11 02:18:29;;;;;;;15.20;13.20;;;;;;;17.02;83.39;100439.77;93771;1202;100031;-59
2021/08/11 02:20:37;;;;;;;16.10;14.20;;;;;;;17.01;83.52;100444.21;93777;1202;87034;-63
2021/08/11 02:22:44;;;;;;;14.80;13.30;;;;;;;17.04;83.41;100447.89;93746;1202;92993;-63
2021/08/11 02:24:52;;;;;;;15.90;13.20;;;;;;;17.05;83.40;100449.34;93790;1195;80590;-61
2021/08/11 02:27:05;;;;;;;14.30;12.80;;;;;;;17.04;83.45;100451.00;93758;1196;81642;-62
2021/08/11 02:29:27;;;;;;;18.30;13.30;;;;;;;17.00;83.35;100454.48;93756;1202;98324;-62
2021/08/11 02:31:48;;;;;;;15.60;13.50;;;;;;;16.95;83.41;100450.64;93728;1199;86314;-62
2021/08/11 02:34:03;;;;;;;15.90;13.90;;;;;;;16.93;83.42;100456.63;93754;1202;94202;-62
2021/08/11 02:36:19;;;;;;;14.40;12.80;;;;;;;16.88;83.50;100457.20;93727;1202;79723;-62
2021/08/11 02:38:32;;;;;;;15.00;12.80;;;;;;;16.85;83.41;100458.37;93813;1202;81303;-62
2021/08/11 02:40:47;;;;;;;13.40;12.00;;;;;;;16.82;83.42;100458.54;93746;1202;99880;-58
2021/08/11 02:43:05;;;;;;;16.30;14.20;;;;;;;16.79;83.35;100461.04;93780;1196;86241;-58
2021/08/11 02:45:16;;;;;;;15.00;12.70;;;;;;;16.75;83.54;100460.30;93746;1202;94391;-62
2021/08/11 02:47:26;;;;;;;15.60;13.50;;;;;;;16.80;83.52;100462.05;93775;1202;80428;-62
2021/08/11 02:49:36;;;;;;;15.40;13.60;;;;;;;16.80;83.53;100462.39;93794;1202;81869;-62
2021/08/11 02:51:46;;;;;;;15.00;12.60;;;;;;;16.77;83.51;100458.73;93767;1202;98899;-59
2021/08/11 02:53:55;;;;;;;15.50;13.20;;;;;;;16.76;83.50;100463.40;93784;1202;88063;-58
2021/08/11 02:56:03;;;;;;;14.80;12.50;;;;;;;16.73;83.68;100468.31;93755;1202;94036;-58
2021/08/11 02:58:11;;;;;;;15.80;12.80;;;;;;;16.71;83.69;100466.02;93808;1196;80120;-58
2021/08/11 03:00:20;;;;;;;15.00;12.60;;;;;;;16.70;83.67;100465.22;93727;1203;81653;-58
2021/08/11 03:02:28;;;;;;;13.90;11.80;;;;;;;16.69;83.74;100457.30;93795;1202;98463;-58
2021/08/11 03:04:39;;;;;;;13.40;12.10;;;;;;;16.69;83.76;100457.39;93815;1196;87709;-59
2021/08/11 03:06:47;;;;;;;14.20;12.70;;;;;;;16.70;83.70;100459.95;93739;1202;93953;-59
2021/08/11 03:08:56;;;;;;;15.80;13.20;;;;;;;16.66;83.55;100469.19;93769;1186;76914;-59
2021/08/11 03:11:04;;;;;;;14.40;12.90;;;;;;;16.60;83.53;100476.42;93766;1202;81861;-61
2021/08/11 03:13:15;;;;;;;16.40;13.40;;;;;;;16.60;83.64;100475.61;93749;1202;99134;-62
2021/08/11 03:15:23;;;;;;;16.20;12.00;;;;;;;16.67;83.53;100477.26;93796;1202;87415;-63
2021/08/11 03:17:31;;;;;;;13.90;12.50;;;;;;;16.73;83.62;100472.91;93762;1202;94026;-62
2021/08/11 03:19:39;;;;;;;14.20;12.70;;;;;;;16.74;83.66;100469.55;93776;1202;78563;-60
2021/08/11 03:21:48;;;;;;;15.90;12.50;;;;;;;16.73;83.58;100470.79;93762;1202;80932;-58
2021/08/11 03:23:55;;;;;;;14.80;12.90;;;;;;;16.72;83.49;100464.15;93823;1196;97381;-59
2021/08/11 03:26:03;;;;;;;14.80;13.00;;;;;;;16.73;83.38;100464.27;93754;1195;86686;-58
2021/08/11 03:28:11;;;;;;;15.10;13.50;;;;;;;16.69;83.33;100464.66;93766;1202;94008;-59
2021/08/11 03:30:19;;;;;;;17.50;14.60;;;;;;;16.63;83.38;100469.59;93790;1202;81000;-58
2021/08/11 03:32:26;;;;;;;17.50;15.40;;;;;;;16.58;83.37;100472.83;93749;1202;80147;-59
2021/08/11 03:34:37;;;;;;;16.30;14.50;;;;;;;16.53;83.36;100479.34;93771;1202;99662;-59
2021/08/11 03:36:45;;;;;;;15.40;13.80;;;;;;;16.51;83.38;100481.30;93784;1202;88353;-59
2021/08/11 03:38:52;;;;;;;15.20;13.40;;;;;;;16.54;83.45;100482.94;93731;1202;94480;-59
2021/08/11 03:41:00;;;;;;;15.70;14.00;;;;;;;16.52;83.53;100486.55;93749;1195;80150;-62
2021/08/11 03:43:09;;;;;;;16.60;14.90;;;;;;;16.54;83.65;100488.20;93791;1196;80376;-62
2021/08/11 03:45:16;;;;;;;18.70;16.70;;;;;;;16.59;83.67;100485.90;93810;1195;97872;-62
2021/08/11 03:47:24;;;;;;;17.90;16.00;;;;;;;16.65;83.59;100485.92;93760;1202;89046;-62
2021/08/11 03:49:32;;;;;;;17.90;16.00;;;;;;;16.66;83.63;100485.72;93803;1196;93811;-62
2021/08/11 03:51:39;;;;;;;16.60;14.90;;;;;;;16.60;83.69;100481.84;93788;1196;79258;-62
2021/08/11 03:53:47;;;;;;;19.00;16.20;;;;;;;16.60;83.72;100479.98;93778;1202;81667;-62
2021/08/11 03:55:57;;;;;;;19.70;17.50;;;;;;;16.63;83.71;100474.17;93786;1202;99480;-61
2021/08/11 03:58:06;;;;;;;20.30;17.00;;;;;;;16.67;83.73;100477.52;93780;1196;87283;-61
2021/08/11 04:00:15;;;;;;;18.10;16.10;;;;;;;16.73;83.61;100482.29;93708;1204;94049;-57
2021/08/11 04:02:23;;;;;;;18.50;16.50;;;;;;;16.74;83.65;100490.80;93785;1202;79545;-59
2021/08/11 04:04:31;;;;;;;20.10;17.20;;;;;;;16.75;83.62;100483.70;93783;1202;81481;-58
2021/08/11 04:06:39;;;;;;;20.20;17.80;;;;;;;16.76;83.54;100475.52;93791;1195;99085;-61
2021/08/11 04:08:46;;;;;;;19.30;16.50;;;;;;;16.78;83.49;100471.73;93752;1202;87051;-61
2021/08/11 04:10:54;;;;;;;20.10;16.70;;;;;;;16.82;83.42;100474.32;93754;1202;94114;-58
2021/08/11 04:13:02;;;;;;;18.70;16.80;;;;;;;16.82;83.45;100476.71;93726;1202;81495;-58
2021/08/11 04:15:12;;;;;;;18.60;16.60;;;;;;;16.81;83.37;100472.81;93810;1202;81561;-61
2021/08/11 04:17:19;;;;;;;17.90;15.90;;;;;;;16.77;83.45;100468.84;93807;1202;98043;-62
2021/08/11 04:19:27;;;;;;;18.70;16.70;;;;;;;16.82;83.47;100463.66;93768;1202;87725;-62
2021/08/11 04:21:35;;;;;;;17.60;15.80;;;;;;;16.81;83.50;100459.88;93728;1202;94218;-61
2021/08/11 04:23:42;;;;;;;17.80;15.50;;;;;;;16.85;83.42;100457.88;93751;1202;80655;-62
2021/08/11 04:25:53;;;;;;;15.90;14.20;;;;;;;16.89;83.47;100457.45;93806;1195;79774;-59
2021/08/11 04:28:00;;;;;;;17.40;14.50;;;;;;;16.87;83.60;100454.15;93756;1202;100083;-58
2021/08/11 04:30:11;;;;;;;14.50;13.00;;;;;;;16.88;83.63;100447.85;93769;1202;88331;-61
2021/08/11 04:32:22;;;;;;;14.50;13.10;;;;;;;16.90;83.57;100449.27;93765;1202;94178;-62
2021/08/11 04:34:30;;;;;;;16.10;14.40;;;;;;;16.94;83.50;100457.59;93758;1202;80348;-62
2021/08/11 04:36:38;;;;;;;18.90;16.10;;;;;;;16.99;83.44;100456.44;93789;1202;79985;-59
2021/08/11 04:38:45;;;;;;;19.40;16.70;;;;;;;17.01;83.50;100464.08;93739;1202;99294;-58
2021/08/11 04:40:53;;;;;;;18.30;16.40;;;;;;;17.08;83.50;100473.94;93820;1196;86278;-62
2021/08/11 04:43:00;;;;;;;19.70;16.20;;;;;;;17.04;83.51;100477.15;93769;1202;94924;-62
2021/08/11 04:45:11;;;;;;;18.00;15.20;;;;;;;17.02;83.54;100478.14;93764;1195;80196;-61
2021/08/11 04:47:18;;;;;;;17.70;15.80;;;;;;;17.01;83.52;100477.39;93825;1202;80133;-62
2021/08/11 04:49:26;;;;;;;15.70;14.00;;;;;;;16.99;83.58;100485.54;93780;1202;99597;-62
2021/08/11 04:51:34;;;;;;;17.40;15.60;;;;;;;17.01;83.40;100483.40;93779;1196;86605;-59
2021/08/11 04:53:41;;;;;;;16.60;14.80;;;;;;;17.01;83.39;100481.64;93731;1196;93397;-59
2021/08/11 04:55:49;;;;;;;16.30;14.70;;;;;;;17.01;83.33;100483.78;93734;1202;81483;-58
2021/08/11 04:57:56;;;;;;;16.50;14.00;;;;;;;17.01;83.37;100488.03;93755;1202;81431;-59
2021/08/11 05:00:06;;;;;;;16.70;15.00;;;;;;;17.02;83.33;100487.05;93742;1202;99328;-62
2021/08/11 05:02:14;;;;;;;17.60;15.90;;;;;;;17.00;83.23;100489.80;93771;1202;87922;-62
2021/08/11 05:04:21;;;;;;;18.00;16.10;;;;;;;17.03;83.32;100487.71;93775;1202;93116;-62
2021/08/11 05:06:29;;;;;;;18.00;16.10;;;;;;;17.06;83.38;100491.29;93722;1202;81374;-59
2021/08/11 05:08:37;;;;;;;17.20;15.30;;;;;;;17.10;83.33;100492.83;93800;1202;81634;-58
2021/08/11 05:10:44;;;;;;;19.50;16.60;;;;;;;17.13;83.35;100493.73;93780;1202;98155;-62
2021/08/11 05:12:52;;;;;;;18.20;15.70;;;;;;;17.17;83.32;100495.34;93757;1202;87689;-62
2021/08/11 05:15:00;;;;;;;18.60;15.80;;;;;;;17.19;83.35;100497.12;93788;1202;91921;-62
2021/08/11 05:17:11;;;;;;;17.30;15.20;;;;;;;17.23;83.33;100494.50;93737;1202;79577;-62
2021/08/11 05:19:18;;;;;;;19.50;16.90;;;;;;;17.29;83.31;100491.70;93790;1202;80042;-62
2021/08/11 05:21:27;;;;;;;18.10;16.10;;;;;;;17.31;83.25;100493.27;93766;1202;100144;-59
2021/08/11 05:23:34;;;;;;;17.60;15.50;;;;;;;17.34;83.21;100496.07;93776;1202;87109;-58
2021/08/11 05:25:42;;;;;;;17.40;15.50;;;;;;;17.39;83.17;100498.81;93740;1202;93570;-59
2021/08/11 05:27:49;;;;;;;16.60;14.80;;;;;;;17.42;83.11;100504.58;93797;1202;79527;-57
2021/08/11 05:29:57;;;;;;;16.50;14.60;;;;;;;17.45;83.03;100502.61;93755;1202;79969;-62
2021/08/11 05:32:06;;;;;;;18.30;15.90;;;;;;;17.50;82.98;100508.38;93720;1202;99451;-61
2021/08/11 05:34:16;;;;;;;18.40;15.00;;;;;;;17.54;82.94;100507.52;93790;1195;86156;-62
2021/08/11 05:36:24;;;;;;;17.70;14.50;;;;;;;17.56;82.96;100510.30;93734;1202;93523;-62
2021/08/11 05:38:35;;;;;;;18.20;16.10;;;;;;;17.64;82.96;100504.02;93754;1196;77894;-62
2021/08/11 05:40:43;;;;;;;19.00;16.70;;;;;;;17.76;82.96;100502.38;93775;1202;80973;-62
2021/08/11 05:42:51;;;;;;;18.70;16.70;;;;;;;17.80;82.89;100501.39;93772;1202;98116;-62
2021/08/11 05:44:58;;;;;;;19.10;17.10;;;;;;;17.85;82.87;100501.24;93778;1202;86417;-58
2021/08/11 05:47:08;;;;;;;18.40;16.50;;;;;;;17.93;82.80;100502.16;93784;1202;93206;-58
2021/08/11 05:49:15;;;;;;;19.00;17.00;;;;;;;18.01;82.79;100506.73;93767;1202;80258;-59
2021/08/11 05:51:23;;;;;;;19.90;17.40;;;;;;;18.13;82.68;100513.06;93776;1196;80880;-62
2021/08/11 05:53:30;;;;;;;22.00;17.30;;;;;;;18.23;82.75;100506.14;93764;1202;99829;-62
2021/08/11 05:55:42;;;;;;;20.90;18.70;;;;;;;18.41;82.60;100508.39;93714;1202;87804;-58
2021/08/11 05:57:49;;;;;;;20.60;18.50;;;;;;;18.71;82.65;100510.20;93754;1202;95336;-58
2021/08/11 05:59:57;;;;;;;18.70;16.70;;;;;;;18.96;82.17;100504.62;93736;1202;80796;-59
2021/08/11 06:02:05;;;;;;;20.00;18.00;;;;;;;19.05;81.74;100507.23;93764;1202;82032;-58
2021/08/11 06:04:13;;;;;;;20.30;18.20;;;;;;;18.94;81.26;100514.81;93748;1202;100040;-59
2021/08/11 06:06:24;;;;;;;19.90;17.80;;;;;;;18.86;81.19;100508.17;93771;1202;86162;-59
2021/08/11 06:08:33;;;;;;;19.50;17.20;;;;;;;18.77;81.01;100513.11;93780;1202;94421;-66
2021/08/11 06:10:41;;;;;;;19.30;17.20;;;;;;;18.69;80.91;100516.02;93793;1196;78856;-66
2021/08/11 06:12:52;;;;;;;18.30;16.50;;;;;;;19.06;81.56;100516.37;93782;1196;80725;-66
2021/08/11 06:14:59;;;;;;;19.60;16.70;;;;;;;20.82;81.42;100511.61;93753;1202;99520;-68
2021/08/11 06:17:08;;;;;;;17.00;15.30;;;;;;;21.57;79.36;100515.52;93715;1202;87846;-66
2021/08/11 06:19:16;;;;;;;18.10;16.20;;;;;;;21.48;78.81;100514.70;93783;1196;91251;-66
2021/08/11 06:21:24;;;;;;;18.00;16.10;;;;;;;21.51;78.67;100520.79;93741;1202;80542;-70
2021/08/11 06:23:32;;;;;;;19.00;17.10;;;;;;;21.36;78.08;100525.06;93780;1202;80983;-71
2021/08/11 06:25:40;;;;;;;17.90;16.00;;;;;;;20.97;77.76;100528.44;93790;1202;97840;-70
2021/08/11 06:27:51;;;;;;;17.20;15.30;;;;;;;20.80;78.24;100526.39;93747;1202;88161;-71
2021/08/11 06:29:58;;;;;;;16.30;14.30;;;;;;;20.83;77.95;100526.09;93767;1195;93179;-70
2021/08/11 06:32:08;;;;;;;16.10;14.40;;;;;;;20.64;77.59;100522.26;93747;1202;78660;-71
2021/08/11 06:34:19;;;;;;;14.60;13.20;;;;;;;20.47;77.44;100530.55;93805;1202;80421;-72
2021/08/11 06:36:30;;;;;;;14.80;13.30;;;;;;;20.36;77.64;100531.16;93787;1202;99509;-71
2021/08/11 06:38:37;;;;;;;15.30;12.80;;;;;;;20.29;77.27;100530.60;93734;1202;88034;-71
2021/08/11 06:40:45;;;;;;;15.70;13.70;;;;;;;20.29;77.20;100523.48;93776;1202;94485;-72
2021/08/11 06:42:53;;;;;;;16.10;14.50;;;;;;;20.35;77.73;100521.97;93769;1202;79447;-72
2021/08/11 06:45:00;;;;;;;14.90;13.20;;;;;;;20.72;77.93;100523.14;93765;1202;81490;-67
2021/08/11 06:47:08;;;;;;;16.30;13.10;;;;;;;20.98;77.70;100522.95;93750;1202;99861;-60
2021/08/11 06:49:16;;;;;;;13.80;12.40;;;;;;;21.24;77.52;100530.58;93787;1195;87183;-61
2021/08/11 06:51:24;;;;;;;12.90;11.50;;;;;;;21.35;76.90;100527.52;93791;1202;93998;-69
2021/08/11 06:53:32;;;;;;;14.00;12.60;;;;;;;21.33;76.20;100531.78;93764;1202;80476;-67
2021/08/11 06:55:43;;;;;;;13.70;12.30;;;;;;;21.16;75.96;100535.65;93818;1195;82694;-67
2021/08/11 06:57:50;;;;;;;13.90;12.40;;;;;;;20.92;75.65;100541.12;93787;1202;99982;-67
2021/08/11 06:59:58;;;;;;;12.40;11.20;;;;;;;20.64;75.53;100546.73;93753;1202;88125;-61
2021/08/11 07:02:06;;;;;;;14.30;11.20;;;;;;;20.54;75.95;100549.28;93750;1202;94387;-61
2021/08/11 07:04:16;;;;;;;11.90;10.80;;;;;;;20.82;76.06;100556.35;93734;1196;77685;-61
2021/08/11 07:06:24;;;;;;;13.00;11.00;;;;;;;21.14;76.20;100553.13;93775;1202;81769;-68
2021/08/11 07:08:32;;;;;;;11.20;10.00;;;;;;;21.62;76.05;100552.73;93756;1202;99145;-67
2021/08/11 07:10:39;;;;;;;11.30;9.10;;;;;;;21.93;75.73;100555.03;93753;1202;87972;-61
2021/08/11 07:12:47;;;;;;;11.20;10.10;;;;;;;22.32;75.32;100556.71;93715;1202;94155;-61
2021/08/11 07:14:55;;;;;;;10.70;9.60;;;;;;;22.83;74.84;100558.70;93738;1202;78215;-68
2021/08/11 07:17:03;;;;;;;11.20;9.40;;;;;;;23.21;73.48;100558.27;93753;1202;81442;-67
2021/08/11 07:19:11;;;;;;;10.40;9.40;;;;;;;23.06;73.40;100554.94;93780;1202;98132;-67
2021/08/11 07:21:19;;;;;;;9.80;8.60;;;;;;;24.00;73.20;100547.63;93815;1202;88202;-61
2021/08/11 07:23:26;;;;;;;9.30;8.20;;;;;;;24.91;72.14;100554.14;93811;1202;94001;-61
2021/08/11 07:25:37;;;;;;;8.70;7.90;;;;;;;25.61;70.50;100555.49;93739;1195;77914;-61
2021/08/11 07:27:44;;;;;;;8.10;7.40;;;;;;;25.59;69.04;100557.05;93770;1202;81429;-60
2021/08/11 07:29:52;;;;;;;8.70;7.60;;;;;;;26.14;68.20;100557.16;93740;1202;100504;-61
2021/08/11 07:31:59;;;;;;;9.20;7.70;;;;;;;26.71;66.98;100554.64;93775;1202;87963;-62
2021/08/11 07:34:07;;;;;;;7.40;6.70;;;;;;;27.18;66.72;100553.66;93755;1202;92609;-62
2021/08/11 07:36:15;;;;;;;7.90;7.00;;;;;;;27.74;65.08;100556.75;93786;1202;79401;-62
2021/08/11 07:38:25;;;;;;;7.20;5.90;;;;;;;28.25;64.27;100550.94;93748;1202;81389;-62
2021/08/11 07:40:35;;;;;;;6.70;5.70;;;;;;;28.17;62.54;100557.02;93731;1202;100084;-67
2021/08/11 07:42:46;;;;;;;7.70;5.50;;;;;;;27.64;62.38;100563.52;93790;1202;88049;-68
2021/08/11 07:44:54;;;;;;;6.80;5.60;;;;;;;27.20;62.54;100553.36;93753;1202;94519;-62
2021/08/11 07:47:05;;;;;;;6.60;5.30;;;;;;;27.67;62.45;100550.95;93833;1196;77740;-61
2021/08/11 07:49:13;;;;;;;6.30;5.30;;;;;;;27.41;62.17;100543.41;93788;1202;81579;-61
2021/08/11 07:51:24;;;;;;;5.80;5.20;;;;;;;27.32;62.17;100544.90;93748;1202;99807;-67
2021/08/11 07:53:31;;;;;;;6.10;5.50;;;;;;;27.38;61.67;100539.06;93752;1202;88988;-67
2021/08/11 07:55:39;;;;;;;6.50;5.50;;;;;;;26.79;61.35;100546.42;93789;1196;94639;-61
2021/08/11 07:57:47;;;;;;;5.90;4.80;;;;;;;27.72;61.27;100538.10;93769;1196;78694;-61
2021/08/11 07:59:55;;;;;;;5.20;4.60;;;;;;;28.11;59.65;100535.55;93791;1202;81631;-77
2021/08/11 08:02:08;;;;;;;5.70;5.10;;;;;;;27.38;59.07;100542.44;93777;1202;99225;-74
2021/08/11 08:04:14;;;;;;;;;;;;;;;27.01;59.46;100541.33;93792;1202;88435;-74
2021/08/11 08:06:22;;;;;;;5.60;4.60;;;;;;;27.21;60.20;100536.27;93795;1202;93991;-75
2021/08/11 08:08:31;;;;;;;5.20;4.50;;;;;;;27.99;58.85;100529.07;93731;1202;78217;-73
2021/08/11 08:10:39;;;;;;;4.90;4.30;;;;;;;28.27;58.09;100522.35;93803;1202;82301;-59
2021/08/11 08:12:48;;;;;;;6.00;4.60;;;;;;;28.29;57.84;100525.38;93781;1202;99320;-62
2021/08/11 08:14:56;;;;;;;6.10;4.80;;;;;;;28.27;58.17;100526.91;93986;1202;87534;-68
2021/08/11 08:17:04;;;;;;;6.00;4.50;;;;;;;29.26;58.12;100526.24;93772;1202;94270;-68
2021/08/11 08:19:11;;;;;;;5.80;5.20;;;;;;;30.01;56.57;100523.21;93766;1199;78477;-67
2021/08/11 08:21:19;;;;;;;6.30;4.80;;;;;;;28.98;54.60;100520.61;93720;1196;80620;-62
2021/08/11 08:23:27;;;;;;;4.80;4.30;;;;;;;27.62;54.55;100518.75;93787;1202;98837;-64
2021/08/11 08:25:34;;;;;;;5.50;5.00;;;;;;;26.94;55.93;100519.20;93774;1195;86310;-72
2021/08/11 08:27:42;;;;;;;5.50;4.50;;;;;;;26.99;57.15;100519.61;93770;1202;93984;-72
2021/08/11 08:29:50;;;;;;;5.20;4.50;;;;;;;27.56;57.84;100514.23;93772;1195;78124;-63
2021/08/11 08:31:58;;;;;;;4.60;4.20;;;;;;;28.75;57.38;100504.69;93774;1202;81665;-62
2021/08/11 08:34:05;;;;;;;6.00;4.40;;;;;;;29.85;56.48;100502.34;93758;1202;99932;-62
2021/08/11 08:36:14;;;;;;;4.90;4.30;;;;;;;30.55;54.85;100504.87;93754;1203;88521;-70
2021/08/11 08:38:22;;;;;;;4.30;3.90;;;;;;;30.74;53.02;100503.20;93774;1202;94330;-70
2021/08/11 08:40:35;;;;;;;5.00;4.50;;;;;;;31.09;52.10;100502.69;93757;1202;80776;-62
2021/08/11 08:42:44;;;;;;;4.00;3.60;;;;;;;31.30;51.74;100502.84;93805;1202;82975;-62
2021/08/11 08:44:52;;;;;;;5.70;3.70;;;;;;;31.59;50.83;100499.02;93768;1202;100166;-70
2021/08/11 08:47:00;;;;;;;4.50;3.60;;;;;;;31.97;50.99;100503.66;93787;1202;87673;-70
2021/08/11 08:49:09;;;;;;;6.40;4.50;;;;;;;32.05;50.34;100502.25;93762;1202;93714;-78
2021/08/11 08:51:19;;;;;;;5.80;4.40;;;;;;;31.62;49.27;100504.79;93782;1202;78253;-64
2021/08/11 08:53:27;;;;;;;5.40;4.30;;;;;;;31.38;48.70;100499.20;93774;1202;81262;-63
2021/08/11 08:55:36;;;;;;;5.00;4.50;;;;;;;31.51;49.05;100501.61;93825;1202;100753;-69
2021/08/11 08:57:43;;;;;;;5.20;4.70;;;;;;;31.78;48.73;100499.77;93815;1202;87501;-75
2021/08/11 08:59:52;;;;;;;6.10;4.40;;;;;;;32.10;49.14;100493.99;93796;1202;94497;-68
2021/08/11 09:02:03;;;;;;;4.70;4.20;;;;;;;32.40;49.18;100494.59;93748;1202;79764;-69
2021/08/11 09:04:11;;;;;;;4.10;3.70;;;;;;;32.46;48.73;100492.30;93770;1202;81936;-68
2021/08/11 09:06:18;;;;;;;3.50;3.20;;;;;;;32.54;47.95;100493.66;93756;1202;100602;-67
2021/08/11 09:08:30;;;;;;;3.90;3.30;;;;;;;32.67;47.26;100490.99;93785;1202;88345;-66
2021/08/11 09:10:41;;;;;;;4.00;2.90;;;;;;;32.66;46.45;100492.23;93765;1196;93964;-65
2021/08/11 09:12:51;;;;;;;4.70;3.60;;;;;;;31.94;46.07;100495.17;93775;1195;79615;-65
2021/08/11 09:15:01;;;;;;;5.30;3.70;;;;;;;31.28;46.64;100498.39;93806;1202;80138;-70
2021/08/11 09:17:09;;;;;;;3.50;3.20;;;;;;;31.26;47.74;100496.27;93755;1202;97859;-68
2021/08/11 09:19:21;;;;;;;3.30;3.00;;;;;;;31.47;46.97;100499.03;93775;1196;86943;-68
2021/08/11 09:21:29;;;;;;;3.80;2.70;;;;;;;31.43;46.52;100492.77;93733;1202;94082;-65
2021/08/11 09:23:40;;;;;;;4.20;3.30;;;;;;;31.10;46.78;100495.11;93761;1196;78917;-65
2021/08/11 09:26:02;;;;;;;4.00;3.40;;;;;;;30.47;47.07;100495.97;93724;1186;80710;-67
2021/08/11 09:28:19;;;;;;;4.30;3.20;;;;;;;29.92;48.42;100495.60;93797;1195;98753;-67
2021/08/11 09:30:32;;;;;;;3.90;3.10;;;;;;;30.08;48.87;100495.95;93778;1202;88228;-64
2021/08/11 09:33:01;;;;;;;3.50;2.70;;;;;;;29.70;49.35;100494.34;93778;1202;93622;-63
2021/08/11 09:35:12;;;;;;;4.10;2.80;;;;;;;29.07;48.96;100497.23;93806;1196;78062;-65
2021/08/11 09:37:38;;;;;;;3.70;2.80;;;;;;;28.47;49.23;100501.17;93789;1189;80963;-65
2021/08/11 09:39:46;;;;;;;4.30;3.10;;;;;;;27.82;50.67;100499.48;93789;1202;99502;-65
2021/08/11 09:42:04;;;;;;;4.20;2.90;;;;;;;27.60;51.48;100494.98;93847;1196;87437;-65
2021/08/11 09:44:14;;;;;;;3.50;2.80;;;;;;;27.75;52.28;100496.99;93825;1202;94104;-64
2021/08/11 09:46:33;;;;;;;4.70;2.90;;;;;;;27.93;52.01;100501.21;93786;1202;78686;-65
2021/08/11 09:48:45;;;;;;;4.20;2.50;;;;;;;27.89;52.36;100497.98;93758;1202;81305;-66
2021/08/11 09:51:01;;;;;;;3.20;2.70;;;;;;;27.88;52.29;100498.57;93766;1202;99774;-66
2021/08/11 09:53:10;;;;;;;3.60;2.80;;;;;;;27.84;51.96;100499.95;93830;1202;87742;-68